createdAt,value
2018-03-08T00:02:22.735Z,3.52
2018-03-08T00:04:48.787Z,3.53
2018-03-08T00:07:14.938Z,3.56
2018-03-08T00:09:41.082Z,3.63
2018-03-08T00:12:07.195Z,3.69
2018-03-08T00:14:33.412Z,3.73
2018-03-08T00:16:59.467Z,3.66
2018-03-08T00:19:25.577Z,3.69
2018-03-08T00:21:51.633Z,3.70
2018-03-08T00:24:17.672Z,3.67
2018-03-08T00:26:43.899Z,3.63
2018-03-08T00:29:09.993Z,3.63
2018-03-08T00:31:36.020Z,3.56
2018-03-08T00:34:02.088Z,3.54
2018-03-08T00:36:28.157Z,3.53
2018-03-08T00:38:54.202Z,3.52
2018-03-08T00:41:20.284Z,3.47
2018-03-08T00:43:46.314Z,3.45
2018-03-08T00:46:12.407Z,3.46
2018-03-08T00:48:38.654Z,3.46
2018-03-08T00:51:04.710Z,3.44
2018-03-08T00:53:30.776Z,3.46
2018-03-08T00:55:56.809Z,3.42
2018-03-08T00:58:22.871Z,3.43
2018-03-08T01:00:48.988Z,3.42
2018-03-08T01:03:15.104Z,3.48
2018-03-08T01:05:41.179Z,3.45
2018-03-08T01:08:07.255Z,3.44
2018-03-08T01:10:33.399Z,3.45
2018-03-08T01:12:59.494Z,3.49
2018-03-08T01:15:25.580Z,3.50
2018-03-08T01:17:51.927Z,3.55
2018-03-08T01:20:18.037Z,3.62
2018-03-08T01:22:44.101Z,3.72
2018-03-08T01:25:10.165Z,3.69
2018-03-08T01:27:36.255Z,3.77
2018-03-08T01:30:02.305Z,3.76
2018-03-08T01:32:28.334Z,3.86
2018-03-08T01:34:54.373Z,3.95
2018-03-08T01:40:13.579Z,4.11
2018-03-08T01:42:39.659Z,4.16
2018-03-08T01:45:05.739Z,4.24
2018-03-08T01:47:31.744Z,4.32
2018-03-08T01:49:57.803Z,4.24
2018-03-08T01:52:23.857Z,4.25
2018-03-08T01:54:50.061Z,4.39
2018-03-08T01:57:16.128Z,4.44
2018-03-08T01:59:42.223Z,4.36
2018-03-08T02:02:08.307Z,4.49
2018-03-08T02:04:34.336Z,4.57
2018-03-08T02:07:00.403Z,4.60
2018-03-08T02:09:26.477Z,4.58
2018-03-08T02:11:52.559Z,4.66
2018-03-08T02:14:18.708Z,4.74
2018-03-08T02:16:45.460Z,4.85
2018-03-08T02:19:11.508Z,4.90
2018-03-08T02:21:37.538Z,4.97
2018-03-08T02:24:04.020Z,5.02
2018-03-08T02:26:30.099Z,5.08
2018-03-08T02:28:56.205Z,5.11
2018-03-08T02:31:22.306Z,5.09
2018-03-08T02:33:48.360Z,5.12
2018-03-08T02:36:14.392Z,5.15
2018-03-08T02:38:40.453Z,5.17
2018-03-08T02:41:06.554Z,5.21
2018-03-08T02:43:32.612Z,5.22
2018-03-08T02:45:58.739Z,5.27
2018-03-08T02:48:24.804Z,5.30
2018-03-08T02:50:50.874Z,5.32
2018-03-08T02:53:16.984Z,5.34
2018-03-08T02:55:43.065Z,5.33
2018-03-08T02:58:09.121Z,5.37
2018-03-08T03:00:35.235Z,5.42
2018-03-08T03:03:01.278Z,5.43
2018-03-08T03:05:27.356Z,5.44
2018-03-08T03:07:53.475Z,5.41
2018-03-08T03:10:19.504Z,5.42
2018-03-08T03:12:45.954Z,5.38
2018-03-08T03:15:12.011Z,5.37
2018-03-08T03:17:38.043Z,5.35
2018-03-08T03:20:04.093Z,5.29
2018-03-08T03:22:30.817Z,5.27
2018-03-08T03:24:56.892Z,5.26
2018-03-08T03:27:22.920Z,5.27
2018-03-08T03:29:48.965Z,5.25
2018-03-08T03:32:14.997Z,5.25
2018-03-08T03:34:41.113Z,5.24
2018-03-08T03:37:07.172Z,5.26
2018-03-08T03:39:33.224Z,5.24
2018-03-08T03:41:59.498Z,5.24
2018-03-08T03:44:25.549Z,5.24
2018-03-08T03:46:51.584Z,5.23
2018-03-08T03:49:17.641Z,5.21
2018-03-08T03:51:43.703Z,5.21
2018-03-08T03:54:09.769Z,5.22
2018-03-08T03:56:35.848Z,5.21
2018-03-08T03:59:01.905Z,5.20
2018-03-08T04:01:27.968Z,5.22
2018-03-08T04:03:54.497Z,5.19
2018-03-08T04:06:20.582Z,5.19
2018-03-08T04:08:46.611Z,5.19
2018-03-08T04:11:13.317Z,5.18
2018-03-08T04:13:39.375Z,5.15
2018-03-08T04:16:05.467Z,5.14
2018-03-08T04:18:31.469Z,5.15
2018-03-08T04:20:57.515Z,5.14
2018-03-08T04:23:23.585Z,5.14
2018-03-08T04:25:49.736Z,5.13
2018-03-08T04:28:15.788Z,5.11
2018-03-08T04:30:41.844Z,5.11
2018-03-08T04:33:07.928Z,5.11
2018-03-08T04:35:33.980Z,5.12
2018-03-08T04:38:00.136Z,5.11
2018-03-08T04:40:26.187Z,5.13
2018-03-08T04:42:52.474Z,5.13
2018-03-08T04:45:18.534Z,5.12
2018-03-08T04:47:44.580Z,5.12
2018-03-08T04:50:10.763Z,5.08
2018-03-08T04:52:37.207Z,5.05
2018-03-08T04:55:03.304Z,5.05
2018-03-08T04:57:29.338Z,4.99
2018-03-08T04:59:55.397Z,4.94
2018-03-08T05:02:22.583Z,4.93
2018-03-08T05:04:48.671Z,4.89
2018-03-08T05:07:14.843Z,4.85
2018-03-08T05:09:40.965Z,4.78
2018-03-08T05:12:07.066Z,4.70
2018-03-08T05:14:33.126Z,4.69
2018-03-08T05:16:59.232Z,4.65
2018-03-08T05:19:25.272Z,4.60
2018-03-08T05:21:51.335Z,4.50
2018-03-08T05:24:17.380Z,4.46
2018-03-08T05:26:43.450Z,4.45
2018-03-08T05:29:09.507Z,4.34
2018-03-08T05:31:35.584Z,4.37
2018-03-08T05:34:01.650Z,4.33
2018-03-08T05:36:27.734Z,4.38
2018-03-08T05:38:53.900Z,4.40
2018-03-08T05:41:19.951Z,4.36
2018-03-08T05:43:46.004Z,4.26
2018-03-08T05:46:12.042Z,4.25
2018-03-08T05:48:38.162Z,4.19
2018-03-08T05:51:04.330Z,4.16
2018-03-08T05:53:30.417Z,4.00
2018-03-08T05:55:56.482Z,4.02
2018-03-08T05:58:22.543Z,3.84
2018-03-08T06:00:48.645Z,3.76
2018-03-08T06:03:14.778Z,3.61
2018-03-08T06:05:40.854Z,3.51
2018-03-08T06:08:06.975Z,3.33
2018-03-08T06:10:33.063Z,3.36
2018-03-08T06:12:59.125Z,3.35
2018-03-08T06:15:25.182Z,3.35
2018-03-08T06:17:51.260Z,3.35
2018-03-08T06:20:17.316Z,3.42
2018-03-08T06:22:43.393Z,3.45
2018-03-08T06:25:09.459Z,3.47
2018-03-08T06:27:35.526Z,3.48
2018-03-08T06:30:01.982Z,3.53
2018-03-08T06:32:28.082Z,3.55
2018-03-08T06:34:54.204Z,3.60
2018-03-08T06:37:20.337Z,3.61
2018-03-08T06:39:46.399Z,3.67
2018-03-08T06:42:12.644Z,3.71
2018-03-08T06:44:38.732Z,3.78
2018-03-08T06:47:04.825Z,3.80
2018-03-08T06:49:30.911Z,3.85
2018-03-08T06:51:57.010Z,3.90
2018-03-08T06:54:23.101Z,3.95
2018-03-08T06:56:49.173Z,3.99
2018-03-08T06:59:15.235Z,4.04
2018-03-08T07:01:41.313Z,4.11
2018-03-08T07:04:07.372Z,4.17
2018-03-08T07:06:33.434Z,4.20
2018-03-08T07:08:59.486Z,4.25
2018-03-08T07:11:25.584Z,4.28
2018-03-08T07:13:51.670Z,4.33
2018-03-08T07:16:17.726Z,4.39
2018-03-08T07:18:43.790Z,4.43
2018-03-08T07:21:09.863Z,4.48
2018-03-08T07:23:35.919Z,4.56
2018-03-08T07:26:02.020Z,4.60
2018-03-08T07:28:28.145Z,4.67
2018-03-08T07:30:54.164Z,4.71
2018-03-08T07:33:20.205Z,4.77
2018-03-08T07:35:46.306Z,4.83
2018-03-08T07:38:12.383Z,4.90
2018-03-08T07:40:38.446Z,4.94
2018-03-08T07:43:04.623Z,4.98
2018-03-08T07:45:30.755Z,5.02
2018-03-08T07:47:56.809Z,5.06
2018-03-08T07:50:22.903Z,5.08
2018-03-08T07:52:48.985Z,5.13
2018-03-08T07:55:15.096Z,5.16
2018-03-08T07:57:41.164Z,5.18
2018-03-08T08:00:07.214Z,5.21
2018-03-08T08:02:33.305Z,5.23
2018-03-08T08:08:11.799Z,5.27
2018-03-08T08:10:37.859Z,5.30
2018-03-08T08:13:04.257Z,5.36
2018-03-08T08:15:30.318Z,5.47
2018-03-08T08:17:56.364Z,5.51
2018-03-08T08:20:22.455Z,5.53
2018-03-08T08:22:48.666Z,5.54
2018-03-08T08:25:14.708Z,5.60
2018-03-08T08:27:40.972Z,5.70
2018-03-08T08:30:07.038Z,5.72
2018-03-08T08:32:33.073Z,5.75
2018-03-08T08:34:59.130Z,5.85
2018-03-08T08:37:25.161Z,5.87
2018-03-08T08:39:51.317Z,5.93
2018-03-08T08:42:17.387Z,5.96
2018-03-08T08:44:43.442Z,6.03
2018-03-08T08:47:09.534Z,6.14
2018-03-08T08:49:35.703Z,6.18
2018-03-08T08:52:01.718Z,6.27
2018-03-08T08:54:27.743Z,6.30
2018-03-08T08:56:53.954Z,6.32
2018-03-08T08:59:20.005Z,6.34
2018-03-08T09:01:46.072Z,6.39
2018-03-08T09:04:12.133Z,6.44
2018-03-08T09:06:38.200Z,6.53
2018-03-08T09:09:04.488Z,6.55
2018-03-08T09:11:30.601Z,6.59
2018-03-08T09:13:56.654Z,6.53
2018-03-08T09:16:22.752Z,6.55
2018-03-08T09:18:48.942Z,6.55
2018-03-08T09:21:14.972Z,6.53
2018-03-08T09:23:41.059Z,6.51
2018-03-08T09:26:07.130Z,6.57
2018-03-08T09:28:33.215Z,6.66
2018-03-08T09:30:59.381Z,6.69
2018-03-08T09:33:25.431Z,6.70
2018-03-08T09:35:51.703Z,6.73
2018-03-08T09:38:17.772Z,6.74
2018-03-08T09:40:43.855Z,6.77
2018-03-08T09:43:09.906Z,6.76
2018-03-08T09:45:36.093Z,6.83
2018-03-08T09:48:02.195Z,6.90
2018-03-08T09:50:28.230Z,6.93
2018-03-08T09:52:54.437Z,7.05
2018-03-08T09:55:20.670Z,7.12
2018-03-08T09:57:46.780Z,7.15
2018-03-08T10:00:12.858Z,7.13
2018-03-08T10:02:38.970Z,7.19
2018-03-08T10:05:05.169Z,7.26
2018-03-08T10:07:31.208Z,7.26
2018-03-08T10:09:57.314Z,7.23
2018-03-08T10:12:23.366Z,7.38
2018-03-08T10:14:49.625Z,7.45
2018-03-08T10:17:15.698Z,7.50
2018-03-08T10:19:41.748Z,7.49
2018-03-08T10:22:07.924Z,7.54
2018-03-08T10:24:33.968Z,7.67
2018-03-08T10:27:00.033Z,7.83
2018-03-08T10:29:26.075Z,7.81
2018-03-08T10:31:52.152Z,7.68
2018-03-08T10:34:18.153Z,7.62
2018-03-08T10:36:44.276Z,7.56
2018-03-08T10:44:02.643Z,7.68
2018-03-08T10:46:28.851Z,7.89
2018-03-08T10:51:21.065Z,8.17
2018-03-08T10:53:47.250Z,8.25
2018-03-08T10:56:13.300Z,8.32
2018-03-08T10:58:39.328Z,8.39
2018-03-08T11:01:05.597Z,8.45
2018-03-08T11:03:47.762Z,8.55
2018-03-08T11:06:19.816Z,8.68
2018-03-08T11:08:45.864Z,8.89
2018-03-08T11:11:12.055Z,8.99
2018-03-08T11:13:38.124Z,8.87
2018-03-08T11:16:04.189Z,9.06
2018-03-08T11:18:30.350Z,9.27
2018-03-08T11:20:56.420Z,9.32
2018-03-08T11:23:22.521Z,9.54
2018-03-08T11:25:48.588Z,9.71
2018-03-08T11:28:14.652Z,9.48
2018-03-08T11:30:40.746Z,9.44
2018-03-08T11:33:06.784Z,9.44
2018-03-08T11:35:32.959Z,9.27
2018-03-08T11:37:59.190Z,9.70
2018-03-08T11:40:25.249Z,9.73
2018-03-08T11:42:51.545Z,9.73
2018-03-08T11:45:17.624Z,10.26
2018-03-08T11:47:43.722Z,10.60
2018-03-08T11:50:09.872Z,11.21
2018-03-08T11:52:35.958Z,11.18
2018-03-08T11:55:02.032Z,11.54
2018-03-08T11:57:28.180Z,11.80
2018-03-08T11:59:54.243Z,11.48
2018-03-08T12:02:20.297Z,11.82
2018-03-08T12:04:46.430Z,11.93
2018-03-08T12:07:12.510Z,11.97
2018-03-08T12:09:38.557Z,12.31
2018-03-08T12:12:04.660Z,12.30
2018-03-08T12:14:30.772Z,12.46
2018-03-08T12:16:56.935Z,12.36
2018-03-08T12:19:22.976Z,12.56
2018-03-08T12:21:49.240Z,12.95
2018-03-08T12:24:15.317Z,12.88
2018-03-08T12:26:41.387Z,12.78
2018-03-08T12:29:07.530Z,12.67
2018-03-08T12:31:33.625Z,11.90
2018-03-08T12:33:59.690Z,11.92
2018-03-08T12:36:25.781Z,12.07
2018-03-08T12:38:51.843Z,12.27
2018-03-08T12:41:17.980Z,12.36
2018-03-08T12:43:44.046Z,12.34
2018-03-08T12:46:10.147Z,12.08
2018-03-08T12:48:36.310Z,12.60
2018-03-08T12:51:02.363Z,12.57
2018-03-08T12:53:28.403Z,12.42
2018-03-08T12:55:54.438Z,12.86
2018-03-08T12:58:20.691Z,13.09
2018-03-08T13:00:47.038Z,13.21
2018-03-08T13:03:13.126Z,13.46
2018-03-08T13:05:39.184Z,13.63
2018-03-08T13:08:05.307Z,13.47
2018-03-08T13:10:31.407Z,13.46
2018-03-08T13:12:58.871Z,13.60
2018-03-08T13:15:25.183Z,13.21
2018-03-08T13:17:51.260Z,12.80
2018-03-08T13:20:17.353Z,12.70
2018-03-08T13:22:43.462Z,12.76
2018-03-08T13:25:09.727Z,12.90
2018-03-08T13:27:35.790Z,12.81
2018-03-08T13:30:02.748Z,12.45
2018-03-08T13:32:29.004Z,12.17
2018-03-08T13:34:55.119Z,11.88
2018-03-08T13:37:21.255Z,11.72
2018-03-08T13:39:47.535Z,11.54
2018-03-08T13:42:13.654Z,11.49
2018-03-08T13:44:39.706Z,11.54
2018-03-08T13:47:06.236Z,11.45
2018-03-08T13:49:36.324Z,11.16
2018-03-08T13:52:02.408Z,10.97
2018-03-08T13:54:28.470Z,10.91
2018-03-08T13:56:54.516Z,10.74
2018-03-08T13:59:20.605Z,10.56
2018-03-08T14:01:46.716Z,10.41
2018-03-08T14:04:12.767Z,10.44
2018-03-08T14:06:38.899Z,10.34
2018-03-08T14:09:06.228Z,10.28
2018-03-08T14:11:33.822Z,10.28
2018-03-08T14:14:00.557Z,10.29
2018-03-08T14:16:27.572Z,10.27
2018-03-08T14:18:53.642Z,10.30
2018-03-08T14:21:19.695Z,10.32
2018-03-08T14:23:45.916Z,10.41
2018-03-08T14:26:11.963Z,10.51
2018-03-08T14:28:38.879Z,10.48
2018-03-08T14:31:04.914Z,10.52
2018-03-08T14:33:31.906Z,10.59
2018-03-08T14:35:58.540Z,10.76
2018-03-08T14:38:24.720Z,10.85
2018-03-08T14:40:50.873Z,10.85
2018-03-08T14:43:16.920Z,10.95
2018-03-08T14:45:42.996Z,10.91
2018-03-08T14:48:09.083Z,10.91
2018-03-08T14:50:35.267Z,10.85
2018-03-08T14:53:01.373Z,10.87
2018-03-08T14:55:27.473Z,10.74
2018-03-08T14:57:53.575Z,10.67
2018-03-08T15:00:19.847Z,10.60
2018-03-08T15:02:45.980Z,10.45
2018-03-08T15:05:12.172Z,10.41
2018-03-08T15:07:38.373Z,10.34
2018-03-08T15:10:04.432Z,10.35
2018-03-08T15:12:30.772Z,10.28
2018-03-08T15:14:56.835Z,10.27
2018-03-08T15:17:23.133Z,10.25
2018-03-08T15:19:49.223Z,10.10
2018-03-08T15:22:15.327Z,9.99
2018-03-08T15:24:41.513Z,9.92
2018-03-08T15:27:07.692Z,9.92
2018-03-08T15:29:33.943Z,9.90
2018-03-08T15:32:00.057Z,9.90
2018-03-08T15:34:26.111Z,9.84
2018-03-08T15:36:52.213Z,9.78
2018-03-08T15:39:18.288Z,9.75
2018-03-08T15:41:45.295Z,9.70
2018-03-08T15:44:11.407Z,9.71
2018-03-08T15:46:38.062Z,9.67
2018-03-08T15:49:05.102Z,9.66
2018-03-08T15:51:31.178Z,9.65
2018-03-08T15:53:57.247Z,9.63
2018-03-08T15:56:23.391Z,9.58
2018-03-08T15:58:49.541Z,9.57
2018-03-08T16:01:15.811Z,9.51
2018-03-08T16:03:41.843Z,9.51
2018-03-08T16:06:08.518Z,9.52
2018-03-08T16:08:46.991Z,9.50
2018-03-08T16:11:13.015Z,9.46
2018-03-08T16:13:39.795Z,9.42
2018-03-08T16:16:05.914Z,9.42
2018-03-08T16:18:31.955Z,9.39
2018-03-08T16:20:58.035Z,9.35
2018-03-08T16:23:24.114Z,9.33
2018-03-08T16:25:50.165Z,9.29
2018-03-08T16:28:16.240Z,9.29
2018-03-08T16:30:42.322Z,9.29
2018-03-08T16:33:08.598Z,9.25
2018-03-08T16:35:34.790Z,9.24
2018-03-08T16:38:00.921Z,9.22
2018-03-08T16:40:27.168Z,9.18
2018-03-08T16:42:53.227Z,9.14
2018-03-08T16:45:19.415Z,9.08
2018-03-08T16:47:45.546Z,8.99
2018-03-08T16:50:11.600Z,8.95
2018-03-08T16:52:37.759Z,8.91
2018-03-08T16:55:03.864Z,8.86
2018-03-08T16:57:30.081Z,8.85
2018-03-08T16:59:56.127Z,8.81
2018-03-08T17:02:22.150Z,8.77
2018-03-08T17:04:48.336Z,8.74
2018-03-08T17:07:14.533Z,8.69
2018-03-08T17:09:40.602Z,8.66
2018-03-08T17:12:06.685Z,8.65
2018-03-08T17:14:32.995Z,8.64
2018-03-08T17:16:59.048Z,8.63
2018-03-08T17:19:25.288Z,8.57
2018-03-08T17:21:51.418Z,8.46
2018-03-08T17:24:18.516Z,8.40
2018-03-08T17:26:44.577Z,8.28
2018-03-08T17:29:10.756Z,8.23
2018-03-08T17:31:36.817Z,8.16
2018-03-08T17:34:05.107Z,8.13
2018-03-08T17:36:31.227Z,8.05
2018-03-08T17:38:57.314Z,8.02
2018-03-08T17:41:23.543Z,8.01
2018-03-08T17:43:49.695Z,7.99
2018-03-08T17:46:15.813Z,7.96
2018-03-08T17:48:41.910Z,7.96
2018-03-08T17:51:08.042Z,7.96
2018-03-08T17:53:35.037Z,7.90
2018-03-08T17:56:01.170Z,7.91
2018-03-08T17:58:27.391Z,7.90
2018-03-08T18:00:53.535Z,7.86
2018-03-08T18:03:19.653Z,7.86
2018-03-08T18:05:45.730Z,7.82
2018-03-08T18:08:11.829Z,7.80
2018-03-08T18:10:37.978Z,7.78
2018-03-08T18:13:04.579Z,7.77
2018-03-08T18:15:30.666Z,7.75
2018-03-08T18:17:57.486Z,7.73
2018-03-08T18:20:23.558Z,7.73
2018-03-08T18:22:49.662Z,7.71
2018-03-08T18:25:15.856Z,7.71
2018-03-08T18:27:41.939Z,7.65
2018-03-08T18:30:08.376Z,7.62
2018-03-08T18:32:34.494Z,7.64
2018-03-08T18:35:00.609Z,7.62
2018-03-08T18:37:27.543Z,7.61
2018-03-08T18:39:55.056Z,7.59
2018-03-08T18:42:21.156Z,7.56
2018-03-08T18:44:47.338Z,7.53
2018-03-08T18:47:13.495Z,7.51
2018-03-08T18:49:39.628Z,7.49
2018-03-08T18:52:05.904Z,7.47
2018-03-08T18:54:33.017Z,7.43
2018-03-08T18:56:59.455Z,7.42
2018-03-08T18:59:25.614Z,7.40
2018-03-08T19:01:51.775Z,7.39
2018-03-08T19:04:17.846Z,7.37
2018-03-08T19:06:44.246Z,7.37
2018-03-08T19:09:11.101Z,7.42
2018-03-08T19:11:37.261Z,7.45
2018-03-08T19:14:03.454Z,7.46
2018-03-08T19:16:29.636Z,7.45
2018-03-08T19:18:55.733Z,7.42
2018-03-08T19:21:22.011Z,7.38
2018-03-08T19:23:48.098Z,7.35
2018-03-08T19:26:14.588Z,7.37
2018-03-08T19:28:40.740Z,7.35
2018-03-08T19:31:06.974Z,7.30
2018-03-08T19:33:33.411Z,7.23
2018-03-08T19:36:00.438Z,7.23
2018-03-08T19:38:27.090Z,7.21
2018-03-08T19:40:53.259Z,7.15
2018-03-08T19:43:19.803Z,7.14
2018-03-08T19:45:51.453Z,7.10
2018-03-08T19:48:17.679Z,7.05
2018-03-08T19:50:44.474Z,7.04
2018-03-08T19:53:10.729Z,6.97
2018-03-08T19:55:36.851Z,6.91
2018-03-08T19:58:02.993Z,6.83
2018-03-08T20:00:29.216Z,6.84
2018-03-08T20:02:56.325Z,6.83
2018-03-08T20:05:22.556Z,6.76
2018-03-08T20:07:48.783Z,6.76
2018-03-08T20:10:15.992Z,6.72
2018-03-08T20:12:43.260Z,6.70
2018-03-08T20:15:09.576Z,6.68
2018-03-08T20:17:35.631Z,6.65
2018-03-08T20:20:01.984Z,6.54
2018-03-08T20:22:28.177Z,6.43
2018-03-08T20:24:54.341Z,6.43
2018-03-08T20:27:20.509Z,6.35
2018-03-08T20:29:47.247Z,6.29
2018-03-08T20:32:13.425Z,6.26
2018-03-08T20:34:39.645Z,6.25
2018-03-08T20:37:05.887Z,6.20
2018-03-08T20:39:32.042Z,6.15
2018-03-08T20:41:58.224Z,6.11
2018-03-08T20:44:24.320Z,6.07
2018-03-08T20:46:50.446Z,5.98
2018-03-08T20:49:16.830Z,5.97
2018-03-08T20:51:43.049Z,5.89
2018-03-08T20:54:09.383Z,5.87
2018-03-08T20:56:35.530Z,5.85
2018-03-08T20:59:01.684Z,5.82
2018-03-08T21:01:27.782Z,5.81
2018-03-08T21:03:53.941Z,5.79
2018-03-08T21:06:20.048Z,5.74
2018-03-08T21:08:46.178Z,5.67
2018-03-08T21:11:13.215Z,5.61
2018-03-08T21:13:39.438Z,5.57
2018-03-08T21:16:05.701Z,5.55
2018-03-08T21:18:31.913Z,5.55
2018-03-08T21:20:57.993Z,5.53
2018-03-08T21:23:38.995Z,5.50
2018-03-08T21:26:05.071Z,5.50
2018-03-08T21:28:32.178Z,5.49
2018-03-08T21:30:58.210Z,5.50
2018-03-08T21:33:24.306Z,5.43
2018-03-08T21:35:50.405Z,5.45
2018-03-08T21:38:16.482Z,5.36
2018-03-08T21:40:42.830Z,5.33
2018-03-08T21:43:09.091Z,5.33
2018-03-08T21:45:35.195Z,5.29
2018-03-08T21:48:01.303Z,5.27
2018-03-08T21:50:27.402Z,5.17
2018-03-08T21:52:53.442Z,5.14
2018-03-08T21:55:19.522Z,5.11
2018-03-08T21:57:45.592Z,5.07
2018-03-08T22:00:11.715Z,5.05
2018-03-08T22:02:37.908Z,5.02
2018-03-08T22:05:03.970Z,4.93
2018-03-08T22:07:30.087Z,4.90
2018-03-08T22:09:56.171Z,4.90
2018-03-08T22:12:22.294Z,4.82
2018-03-08T22:14:48.415Z,4.78
2018-03-08T22:17:14.532Z,4.79
2018-03-08T22:19:40.616Z,4.77
2018-03-08T22:22:06.790Z,4.79
2018-03-08T22:24:32.906Z,4.80
2018-03-08T22:26:58.995Z,4.72
2018-03-08T22:29:25.229Z,4.67
2018-03-08T22:31:51.433Z,4.59
2018-03-08T22:34:17.506Z,4.60
2018-03-08T22:36:43.597Z,4.58
2018-03-08T22:39:09.979Z,4.62
2018-03-08T22:41:36.660Z,4.63
2018-03-08T22:44:03.526Z,4.72
2018-03-08T22:46:29.693Z,4.74
2018-03-08T22:48:55.742Z,4.79
2018-03-08T22:51:21.886Z,4.83
2018-03-08T22:53:47.952Z,4.85
2018-03-08T22:56:13.963Z,4.92
2018-03-08T22:58:40.055Z,4.92
2018-03-08T23:01:06.260Z,4.90
2018-03-08T23:03:32.339Z,4.91
2018-03-08T23:05:58.428Z,4.95
2018-03-08T23:08:24.494Z,4.96
2018-03-08T23:10:50.542Z,4.98
2018-03-08T23:13:16.622Z,4.97
2018-03-08T23:15:42.703Z,5.00
2018-03-08T23:18:08.858Z,5.03
2018-03-08T23:20:34.909Z,5.04
2018-03-08T23:23:00.956Z,5.11
2018-03-08T23:25:26.997Z,5.09
2018-03-08T23:27:53.100Z,5.09
2018-03-08T23:30:19.176Z,5.14
2018-03-08T23:32:45.234Z,5.16
2018-03-08T23:35:11.322Z,5.20
2018-03-08T23:37:37.363Z,5.24
2018-03-08T23:40:03.457Z,5.27
2018-03-08T23:42:29.529Z,5.36
2018-03-08T23:44:55.633Z,5.44
2018-03-08T23:47:21.687Z,5.44
2018-03-08T23:49:47.762Z,5.46
2018-03-08T23:52:13.858Z,5.50
2018-03-08T23:54:39.925Z,5.50
2018-03-08T23:57:06.211Z,5.51
2018-03-08T23:59:32.236Z,5.55
